sensor_id;sensor_type;location;lat;lon;timestamp;temperature;humidity
9271;DHT22;4673;53.458;9.940;2022-09-21T00:00:41;7.30;99.90
9271;DHT22;4673;53.458;9.940;2022-09-21T00:03:07;7.30;99.90
9271;DHT22;4673;53.458;9.940;2022-09-21T00:05:34;7.30;99.90
9271;DHT22;4673;53.458;9.940;2022-09-21T00:08:04;7.50;99.90
9271;DHT22;4673;53.458;9.940;2022-09-21T00:10:29;7.30;99.90
9271;DHT22;4673;53.458;9.940;2022-09-21T00:12:56;7.40;99.90
9271;DHT22;4673;53.458;9.940;2022-09-21T00:15:24;7.50;99.90
9271;DHT22;4673;53.458;9.940;2022-09-21T00:17:52;7.60;99.90
9271;DHT22;4673;53.458;9.940;2022-09-21T00:20:18;7.60;99.90
9271;DHT22;4673;53.458;9.940;2022-09-21T00:22:44;7.60;99.90
9271;DHT22;4673;53.458;9.940;2022-09-21T00:25:10;7.60;99.90
9271;DHT22;4673;53.458;9.940;2022-09-21T00:27:36;7.70;99.90
9271;DHT22;4673;53.458;9.940;2022-09-21T00:30:02;7.60;99.90
9271;DHT22;4673;53.458;9.940;2022-09-21T00:32:29;7.60;99.90
9271;DHT22;4673;53.458;9.940;2022-09-21T00:34:59;7.60;99.90
9271;DHT22;4673;53.458;9.940;2022-09-21T00:37:26;7.50;99.90
9271;DHT22;4673;53.458;9.940;2022-09-21T00:39:52;7.40;99.90
9271;DHT22;4673;53.458;9.940;2022-09-21T00:42:32;7.40;99.90
9271;DHT22;4673;53.458;9.940;2022-09-21T00:44:57;7.30;99.90
9271;DHT22;4673;53.458;9.940;2022-09-21T00:50:05;7.20;99.90
9271;DHT22;4673;53.458;9.940;2022-09-21T00:52:35;7.20;99.90
9271;DHT22;4673;53.458;9.940;2022-09-21T00:57:37;7.10;99.90
9271;DHT22;4673;53.458;9.940;2022-09-21T01:00:06;7.10;99.90
9271;DHT22;4673;53.458;9.940;2022-09-21T01:02:35;7.10;99.90
9271;DHT22;4673;53.458;9.940;2022-09-21T01:05:04;7.10;99.90
9271;DHT22;4673;53.458;9.940;2022-09-21T01:07:32;7.00;99.90
9271;DHT22;4673;53.458;9.940;2022-09-21T01:10:03;7.00;99.90
9271;DHT22;4673;53.458;9.940;2022-09-21T01:21:17;6.80;99.90
9271;DHT22;4673;53.458;9.940;2022-09-21T01:24:07;6.80;99.90
9271;DHT22;4673;53.458;9.940;2022-09-21T01:29:21;6.80;99.90
9271;DHT22;4673;53.458;9.940;2022-09-21T01:34:52;6.70;99.90
9271;DHT22;4673;53.458;9.940;2022-09-21T01:37:46;6.70;99.90
9271;DHT22;4673;53.458;9.940;2022-09-21T01:40:18;6.70;99.90
9271;DHT22;4673;53.458;9.940;2022-09-21T01:42:46;6.60;99.90
9271;DHT22;4673;53.458;9.940;2022-09-21T01:45:16;6.60;99.90
9271;DHT22;4673;53.458;9.940;2022-09-21T01:47:43;6.50;99.90
9271;DHT22;4673;53.458;9.940;2022-09-21T01:50:12;6.60;99.90
9271;DHT22;4673;53.458;9.940;2022-09-21T01:52:49;6.50;99.90
9271;DHT22;4673;53.458;9.940;2022-09-21T01:55:33;6.40;99.90
9271;DHT22;4673;53.458;9.940;2022-09-21T01:58:49;6.40;99.90
9271;DHT22;4673;53.458;9.940;2022-09-21T02:01:10;6.50;99.90
9271;DHT22;4673;53.458;9.940;2022-09-21T02:03:50;6.50;99.90
9271;DHT22;4673;53.458;9.940;2022-09-21T02:06:20;6.50;99.90
9271;DHT22;4673;53.458;9.940;2022-09-21T02:08:46;6.60;99.90
9271;DHT22;4673;53.458;9.940;2022-09-21T02:11:12;6.60;99.90
9271;DHT22;4673;53.458;9.940;2022-09-21T02:13:41;6.70;99.90
9271;DHT22;4673;53.458;9.940;2022-09-21T02:16:19;6.70;99.90
9271;DHT22;4673;53.458;9.940;2022-09-21T02:18:56;6.70;99.90
9271;DHT22;4673;53.458;9.940;2022-09-21T02:21:57;6.60;99.90
9271;DHT22;4673;53.458;9.940;2022-09-21T02:35:14;6.50;99.90
9271;DHT22;4673;53.458;9.940;2022-09-21T02:37:46;6.50;99.90
9271;DHT22;4673;53.458;9.940;2022-09-21T02:40:28;6.50;99.90
9271;DHT22;4673;53.458;9.940;2022-09-21T02:43:09;6.50;99.90
9271;DHT22;4673;53.458;9.940;2022-09-21T02:45:44;6.50;99.90
9271;DHT22;4673;53.458;9.940;2022-09-21T02:48:15;6.50;99.90
9271;DHT22;4673;53.458;9.940;2022-09-21T02:50:49;6.60;99.90
9271;DHT22;4673;53.458;9.940;2022-09-21T02:53:23;6.60;99.90
9271;DHT22;4673;53.458;9.940;2022-09-21T02:55:50;6.60;99.90
9271;DHT22;4673;53.458;9.940;2022-09-21T02:58:18;6.60;99.90
9271;DHT22;4673;53.458;9.940;2022-09-21T03:00:45;6.60;99.90
9271;DHT22;4673;53.458;9.940;2022-09-21T03:03:21;6.60;99.90
9271;DHT22;4673;53.458;9.940;2022-09-21T03:05:52;6.60;99.90
9271;DHT22;4673;53.458;9.940;2022-09-21T03:08:18;6.70;99.90
9271;DHT22;4673;53.458;9.940;2022-09-21T03:10:44;6.60;99.90
9271;DHT22;4673;53.458;9.940;2022-09-21T03:13:11;6.60;99.90
9271;DHT22;4673;53.458;9.940;2022-09-21T03:15:38;6.60;99.90
9271;DHT22;4673;53.458;9.940;2022-09-21T03:18:05;6.50;99.90
9271;DHT22;4673;53.458;9.940;2022-09-21T03:20:32;6.50;99.90
9271;DHT22;4673;53.458;9.940;2022-09-21T03:22:58;6.50;99.90
9271;DHT22;4673;53.458;9.940;2022-09-21T03:25:25;6.60;99.90
9271;DHT22;4673;53.458;9.940;2022-09-21T03:27:51;6.60;99.90
9271;DHT22;4673;53.458;9.940;2022-09-21T03:30:25;6.60;99.90
9271;DHT22;4673;53.458;9.940;2022-09-21T03:32:51;6.60;99.90
9271;DHT22;4673;53.458;9.940;2022-09-21T03:35:18;6.60;99.90
9271;DHT22;4673;53.458;9.940;2022-09-21T03:37:44;6.60;99.90
9271;DHT22;4673;53.458;9.940;2022-09-21T03:40:11;6.50;99.90
9271;DHT22;4673;53.458;9.940;2022-09-21T03:42:37;6.50;99.90
9271;DHT22;4673;53.458;9.940;2022-09-21T03:45:04;6.50;99.90
9271;DHT22;4673;53.458;9.940;2022-09-21T03:47:30;6.40;99.90
9271;DHT22;4673;53.458;9.940;2022-09-21T03:49:56;6.30;99.90
9271;DHT22;4673;53.458;9.940;2022-09-21T03:52:21;6.30;99.90
9271;DHT22;4673;53.458;9.940;2022-09-21T03:54:47;6.30;99.90
9271;DHT22;4673;53.458;9.940;2022-09-21T03:57:13;6.30;99.90
9271;DHT22;4673;53.458;9.940;2022-09-21T03:59:38;6.30;99.90
9271;DHT22;4673;53.458;9.940;2022-09-21T04:02:04;6.30;99.90
9271;DHT22;4673;53.458;9.940;2022-09-21T04:04:29;6.40;99.90
9271;DHT22;4673;53.458;9.940;2022-09-21T04:06:55;6.40;99.90
9271;DHT22;4673;53.458;9.940;2022-09-21T04:09:20;6.40;99.90
9271;DHT22;4673;53.458;9.940;2022-09-21T04:11:46;6.40;99.90
9271;DHT22;4673;53.458;9.940;2022-09-21T04:14:12;6.30;99.90
9271;DHT22;4673;53.458;9.940;2022-09-21T04:16:38;6.30;99.90
9271;DHT22;4673;53.458;9.940;2022-09-21T04:19:04;6.30;99.90
9271;DHT22;4673;53.458;9.940;2022-09-21T04:21:30;6.30;99.90
9271;DHT22;4673;53.458;9.940;2022-09-21T04:23:55;6.20;99.90
9271;DHT22;4673;53.458;9.940;2022-09-21T04:26:30;6.10;99.90
9271;DHT22;4673;53.458;9.940;2022-09-21T04:28:57;6.10;99.90
9271;DHT22;4673;53.458;9.940;2022-09-21T04:31:24;6.00;99.90
9271;DHT22;4673;53.458;9.940;2022-09-21T04:33:52;6.00;99.90
9271;DHT22;4673;53.458;9.940;2022-09-21T04:36:19;5.90;99.90
9271;DHT22;4673;53.458;9.940;2022-09-21T04:38:46;5.90;99.90
9271;DHT22;4673;53.458;9.940;2022-09-21T04:41:12;5.80;99.90
9271;DHT22;4673;53.458;9.940;2022-09-21T04:43:41;5.80;99.90
9271;DHT22;4673;53.458;9.940;2022-09-21T04:46:09;5.80;99.90
9271;DHT22;4673;53.458;9.940;2022-09-21T04:48:35;5.80;99.90
9271;DHT22;4673;53.458;9.940;2022-09-21T04:51:01;5.70;99.90
9271;DHT22;4673;53.458;9.940;2022-09-21T04:53:28;5.70;99.90
9271;DHT22;4673;53.458;9.940;2022-09-21T04:55:53;5.70;99.90
9271;DHT22;4673;53.458;9.940;2022-09-21T04:58:20;5.70;99.90
9271;DHT22;4673;53.458;9.940;2022-09-21T05:00:53;5.70;99.90
9271;DHT22;4673;53.458;9.940;2022-09-21T05:03:22;5.60;99.90
9271;DHT22;4673;53.458;9.940;2022-09-21T05:05:50;5.70;99.90
9271;DHT22;4673;53.458;9.940;2022-09-21T05:08:16;5.70;99.90
9271;DHT22;4673;53.458;9.940;2022-09-21T05:10:43;5.60;99.90
9271;DHT22;4673;53.458;9.940;2022-09-21T05:13:09;5.70;99.90
9271;DHT22;4673;53.458;9.940;2022-09-21T05:15:36;5.60;99.90
9271;DHT22;4673;53.458;9.940;2022-09-21T05:18:03;5.70;99.90
9271;DHT22;4673;53.458;9.940;2022-09-21T05:20:29;5.70;99.90
9271;DHT22;4673;53.458;9.940;2022-09-21T05:22:57;5.70;99.90
9271;DHT22;4673;53.458;9.940;2022-09-21T05:25:23;5.70;99.90
9271;DHT22;4673;53.458;9.940;2022-09-21T05:27:49;5.70;99.90
9271;DHT22;4673;53.458;9.940;2022-09-21T05:30:14;5.70;99.90
9271;DHT22;4673;53.458;9.940;2022-09-21T05:32:47;5.70;99.90
9271;DHT22;4673;53.458;9.940;2022-09-21T05:35:44;5.80;99.90
9271;DHT22;4673;53.458;9.940;2022-09-21T05:38:17;5.80;99.90
9271;DHT22;4673;53.458;9.940;2022-09-21T05:40:44;5.90;99.90
9271;DHT22;4673;53.458;9.940;2022-09-21T05:43:11;5.90;99.90
9271;DHT22;4673;53.458;9.940;2022-09-21T05:45:43;6.00;99.90
9271;DHT22;4673;53.458;9.940;2022-09-21T05:48:18;5.90;99.90
9271;DHT22;4673;53.458;9.940;2022-09-21T05:55:58;6.30;99.90
9271;DHT22;4673;53.458;9.940;2022-09-21T05:58:39;6.30;99.90
9271;DHT22;4673;53.458;9.940;2022-09-21T06:03:58;6.50;99.90
9271;DHT22;4673;53.458;9.940;2022-09-21T06:06:24;6.50;99.90
9271;DHT22;4673;53.458;9.940;2022-09-21T06:08:50;6.60;99.90
9271;DHT22;4673;53.458;9.940;2022-09-21T06:11:15;6.70;99.90
9271;DHT22;4673;53.458;9.940;2022-09-21T06:13:41;6.80;99.90
9271;DHT22;4673;53.458;9.940;2022-09-21T06:16:07;6.90;99.90
9271;DHT22;4673;53.458;9.940;2022-09-21T06:18:40;7.00;99.90
9271;DHT22;4673;53.458;9.940;2022-09-21T06:21:07;7.10;99.90
9271;DHT22;4673;53.458;9.940;2022-09-21T06:23:32;7.20;99.90
9271;DHT22;4673;53.458;9.940;2022-09-21T06:25:58;7.30;99.90
9271;DHT22;4673;53.458;9.940;2022-09-21T06:28:24;7.40;99.90
9271;DHT22;4673;53.458;9.940;2022-09-21T06:30:51;7.60;99.90
9271;DHT22;4673;53.458;9.940;2022-09-21T06:33:17;7.70;99.90
9271;DHT22;4673;53.458;9.940;2022-09-21T06:36:05;7.80;99.90
9271;DHT22;4673;53.458;9.940;2022-09-21T06:38:31;7.90;99.90
9271;DHT22;4673;53.458;9.940;2022-09-21T06:41:03;8.00;99.90
9271;DHT22;4673;53.458;9.940;2022-09-21T06:43:29;8.20;99.90
9271;DHT22;4673;53.458;9.940;2022-09-21T06:45:57;8.30;99.90
9271;DHT22;4673;53.458;9.940;2022-09-21T06:48:23;8.30;99.90
9271;DHT22;4673;53.458;9.940;2022-09-21T06:50:50;8.50;99.90
9271;DHT22;4673;53.458;9.940;2022-09-21T06:53:16;8.60;99.90
9271;DHT22;4673;53.458;9.940;2022-09-21T06:55:42;8.80;99.90
9271;DHT22;4673;53.458;9.940;2022-09-21T06:58:07;9.10;99.90
9271;DHT22;4673;53.458;9.940;2022-09-21T07:00:33;9.00;99.90
9271;DHT22;4673;53.458;9.940;2022-09-21T07:02:59;9.30;99.90
9271;DHT22;4673;53.458;9.940;2022-09-21T07:05:25;9.50;99.90
9271;DHT22;4673;53.458;9.940;2022-09-21T07:07:55;9.70;99.90
9271;DHT22;4673;53.458;9.940;2022-09-21T07:10:21;9.80;99.90
9271;DHT22;4673;53.458;9.940;2022-09-21T07:12:46;9.80;99.90
9271;DHT22;4673;53.458;9.940;2022-09-21T07:15:13;9.90;99.90
9271;DHT22;4673;53.458;9.940;2022-09-21T07:17:39;10.00;99.90
9271;DHT22;4673;53.458;9.940;2022-09-21T07:20:06;10.10;99.90
9271;DHT22;4673;53.458;9.940;2022-09-21T07:22:32;10.10;99.90
9271;DHT22;4673;53.458;9.940;2022-09-21T07:24:58;10.10;99.90
9271;DHT22;4673;53.458;9.940;2022-09-21T07:27:25;10.10;99.90
9271;DHT22;4673;53.458;9.940;2022-09-21T07:29:51;10.10;99.90
9271;DHT22;4673;53.458;9.940;2022-09-21T07:32:17;10.20;99.90
9271;DHT22;4673;53.458;9.940;2022-09-21T07:34:43;10.20;99.90
9271;DHT22;4673;53.458;9.940;2022-09-21T07:37:09;10.20;99.90
9271;DHT22;4673;53.458;9.940;2022-09-21T07:39:34;10.30;99.90
9271;DHT22;4673;53.458;9.940;2022-09-21T07:42:00;10.30;99.90
9271;DHT22;4673;53.458;9.940;2022-09-21T07:44:26;10.40;99.90
9271;DHT22;4673;53.458;9.940;2022-09-21T07:46:51;10.50;99.90
9271;DHT22;4673;53.458;9.940;2022-09-21T07:49:17;10.50;99.90
9271;DHT22;4673;53.458;9.940;2022-09-21T07:51:43;10.50;99.90
9271;DHT22;4673;53.458;9.940;2022-09-21T07:54:09;10.50;99.90
9271;DHT22;4673;53.458;9.940;2022-09-21T07:56:39;10.70;99.90
9271;DHT22;4673;53.458;9.940;2022-09-21T07:59:04;10.80;99.90
9271;DHT22;4673;53.458;9.940;2022-09-21T08:01:34;10.80;99.90
9271;DHT22;4673;53.458;9.940;2022-09-21T08:04:01;10.90;99.90
9271;DHT22;4673;53.458;9.940;2022-09-21T08:06:29;11.00;99.90
9271;DHT22;4673;53.458;9.940;2022-09-21T08:08:56;11.10;99.90
9271;DHT22;4673;53.458;9.940;2022-09-21T08:11:22;11.30;99.90
9271;DHT22;4673;53.458;9.940;2022-09-21T08:13:51;11.20;99.90
9271;DHT22;4673;53.458;9.940;2022-09-21T08:16:17;11.30;99.90
9271;DHT22;4673;53.458;9.940;2022-09-21T08:18:42;11.40;99.90
9271;DHT22;4673;53.458;9.940;2022-09-21T08:21:09;11.70;99.90
9271;DHT22;4673;53.458;9.940;2022-09-21T08:23:35;11.60;99.90
9271;DHT22;4673;53.458;9.940;2022-09-21T08:26:05;11.60;99.30
9271;DHT22;4673;53.458;9.940;2022-09-21T08:28:32;11.70;98.90
9271;DHT22;4673;53.458;9.940;2022-09-21T08:31:00;11.70;98.50
9271;DHT22;4673;53.458;9.940;2022-09-21T08:33:26;11.80;96.90
9271;DHT22;4673;53.458;9.940;2022-09-21T08:35:56;11.90;96.30
9271;DHT22;4673;53.458;9.940;2022-09-21T08:38:23;12.00;95.80
9271;DHT22;4673;53.458;9.940;2022-09-21T08:40:49;12.10;95.30
9271;DHT22;4673;53.458;9.940;2022-09-21T08:43:30;12.00;94.80
9271;DHT22;4673;53.458;9.940;2022-09-21T08:45:59;12.10;94.40
9271;DHT22;4673;53.458;9.940;2022-09-21T08:48:28;12.20;94.00
9271;DHT22;4673;53.458;9.940;2022-09-21T08:51:03;12.20;93.40
9271;DHT22;4673;53.458;9.940;2022-09-21T08:53:34;12.30;92.40
9271;DHT22;4673;53.458;9.940;2022-09-21T08:56:00;12.40;91.80
9271;DHT22;4673;53.458;9.940;2022-09-21T08:58:29;12.50;90.50
9271;DHT22;4673;53.458;9.940;2022-09-21T09:06:47;12.70;89.00
9271;DHT22;4673;53.458;9.940;2022-09-21T09:12:16;13.00;84.60
9271;DHT22;4673;53.458;9.940;2022-09-21T09:19:54;13.40;82.60
9271;DHT22;4673;53.458;9.940;2022-09-21T09:22:33;13.50;79.30
9271;DHT22;4673;53.458;9.940;2022-09-21T09:25:04;13.50;79.50
9271;DHT22;4673;53.458;9.940;2022-09-21T09:27:36;13.40;78.80
9271;DHT22;4673;53.458;9.940;2022-09-21T09:30:23;13.50;79.10
9271;DHT22;4673;53.458;9.940;2022-09-21T09:33:00;13.60;78.80
9271;DHT22;4673;53.458;9.940;2022-09-21T09:35:47;13.70;77.70
9271;DHT22;4673;53.458;9.940;2022-09-21T09:46:18;13.60;72.00
9271;DHT22;4673;53.458;9.940;2022-09-21T09:51:37;13.70;74.20
9271;DHT22;4673;53.458;9.940;2022-09-21T09:54:07;13.80;74.20
9271;DHT22;4673;53.458;9.940;2022-09-21T09:56:37;13.90;72.50
9271;DHT22;4673;53.458;9.940;2022-09-21T09:59:05;14.00;72.70
9271;DHT22;4673;53.458;9.940;2022-09-21T10:04:07;14.30;73.10
9271;DHT22;4673;53.458;9.940;2022-09-21T10:06:34;14.50;71.10
9271;DHT22;4673;53.458;9.940;2022-09-21T10:09:00;14.50;70.10
9271;DHT22;4673;53.458;9.940;2022-09-21T10:11:36;14.60;70.10
9271;DHT22;4673;53.458;9.940;2022-09-21T10:14:09;14.70;68.30
9271;DHT22;4673;53.458;9.940;2022-09-21T10:16:42;14.90;67.20
9271;DHT22;4673;53.458;9.940;2022-09-21T10:19:24;14.90;67.20
9271;DHT22;4673;53.458;9.940;2022-09-21T10:22:01;14.80;64.50
9271;DHT22;4673;53.458;9.940;2022-09-21T10:24:34;14.70;65.50
9271;DHT22;4673;53.458;9.940;2022-09-21T10:27:14;14.50;64.30
9271;DHT22;4673;53.458;9.940;2022-09-21T10:29:47;14.30;65.20
9271;DHT22;4673;53.458;9.940;2022-09-21T10:37:30;14.00;67.50
9271;DHT22;4673;53.458;9.940;2022-09-21T10:39:59;13.90;69.10
9271;DHT22;4673;53.458;9.940;2022-09-21T10:42:25;13.90;70.70
9271;DHT22;4673;53.458;9.940;2022-09-21T10:44:53;13.80;68.30
9271;DHT22;4673;53.458;9.940;2022-09-21T10:47:36;13.90;67.00
9271;DHT22;4673;53.458;9.940;2022-09-21T10:52:53;14.10;63.30
9271;DHT22;4673;53.458;9.940;2022-09-21T10:55:22;14.20;58.80
9271;DHT22;4673;53.458;9.940;2022-09-21T10:57:49;14.40;58.20
9271;DHT22;4673;53.458;9.940;2022-09-21T11:00:26;14.60;59.00
9271;DHT22;4673;53.458;9.940;2022-09-21T11:03:02;14.70;57.60
9271;DHT22;4673;53.458;9.940;2022-09-21T11:05:37;14.80;58.10
9271;DHT22;4673;53.458;9.940;2022-09-21T11:08:19;14.90;57.90
9271;DHT22;4673;53.458;9.940;2022-09-21T11:11:02;14.90;55.00
9271;DHT22;4673;53.458;9.940;2022-09-21T11:19:44;15.30;53.70
9271;DHT22;4673;53.458;9.940;2022-09-21T11:22:17;15.20;53.50
9271;DHT22;4673;53.458;9.940;2022-09-21T11:27:41;15.40;51.90
9271;DHT22;4673;53.458;9.940;2022-09-21T11:30:13;15.40;49.90
9271;DHT22;4673;53.458;9.940;2022-09-21T11:35:43;15.50;48.40
9271;DHT22;4673;53.458;9.940;2022-09-21T11:46:47;15.60;50.30
9271;DHT22;4673;53.458;9.940;2022-09-21T12:02:52;16.00;45.90
9271;DHT22;4673;53.458;9.940;2022-09-21T12:14:33;16.10;42.50
9271;DHT22;4673;53.458;9.940;2022-09-21T12:17:13;16.10;43.50
9271;DHT22;4673;53.458;9.940;2022-09-21T12:22:13;16.20;39.70
9271;DHT22;4673;53.458;9.940;2022-09-21T12:24:51;16.10;40.30
9271;DHT22;4673;53.458;9.940;2022-09-21T12:27:29;16.20;40.90
9271;DHT22;4673;53.458;9.940;2022-09-21T12:30:02;16.20;40.80
9271;DHT22;4673;53.458;9.940;2022-09-21T12:35:14;16.30;42.80
9271;DHT22;4673;53.458;9.940;2022-09-21T12:40:38;16.30;45.20
9271;DHT22;4673;53.458;9.940;2022-09-21T12:43:16;16.30;42.60
9271;DHT22;4673;53.458;9.940;2022-09-21T12:45:50;16.10;40.50
9271;DHT22;4673;53.458;9.940;2022-09-21T12:51:01;16.20;43.20
9271;DHT22;4673;53.458;9.940;2022-09-21T12:53:29;16.30;44.10
9271;DHT22;4673;53.458;9.940;2022-09-21T12:56:14;16.40;44.30
9271;DHT22;4673;53.458;9.940;2022-09-21T13:05:34;16.50;44.00
9271;DHT22;4673;53.458;9.940;2022-09-21T13:10:41;16.50;41.20
9271;DHT22;4673;53.458;9.940;2022-09-21T13:15:46;16.40;40.80
9271;DHT22;4673;53.458;9.940;2022-09-21T13:18:20;16.40;40.30
9271;DHT22;4673;53.458;9.940;2022-09-21T13:20:46;16.50;42.40
9271;DHT22;4673;53.458;9.940;2022-09-21T13:26:05;16.60;38.60
9271;DHT22;4673;53.458;9.940;2022-09-21T13:47:51;16.60;35.70
9271;DHT22;4673;53.458;9.940;2022-09-21T13:50:41;16.70;36.90
9271;DHT22;4673;53.458;9.940;2022-09-21T13:56:20;16.80;37.40
9271;DHT22;4673;53.458;9.940;2022-09-21T13:58:47;16.80;35.60
9271;DHT22;4673;53.458;9.940;2022-09-21T14:01:21;16.80;33.70
9271;DHT22;4673;53.458;9.940;2022-09-21T14:03:51;16.70;34.10
9271;DHT22;4673;53.458;9.940;2022-09-21T14:06:26;16.60;34.10
9271;DHT22;4673;53.458;9.940;2022-09-21T14:09:04;16.50;32.70
9271;DHT22;4673;53.458;9.940;2022-09-21T14:11:37;16.60;33.70
9271;DHT22;4673;53.458;9.940;2022-09-21T14:14:29;16.50;32.90
9271;DHT22;4673;53.458;9.940;2022-09-21T14:17:00;16.50;32.10
9271;DHT22;4673;53.458;9.940;2022-09-21T14:24:39;16.70;34.00
9271;DHT22;4673;53.458;9.940;2022-09-21T14:27:26;16.60;33.10
9271;DHT22;4673;53.458;9.940;2022-09-21T14:30:02;16.60;30.90
9271;DHT22;4673;53.458;9.940;2022-09-21T14:32:36;16.60;32.10
9271;DHT22;4673;53.458;9.940;2022-09-21T14:35:10;16.50;31.10
9271;DHT22;4673;53.458;9.940;2022-09-21T14:37:43;16.50;31.70
9271;DHT22;4673;53.458;9.940;2022-09-21T14:40:32;16.50;33.30
9271;DHT22;4673;53.458;9.940;2022-09-21T14:43:08;16.50;33.30
9271;DHT22;4673;53.458;9.940;2022-09-21T14:45:53;16.50;31.00
9271;DHT22;4673;53.458;9.940;2022-09-21T14:54:30;16.40;32.00
9271;DHT22;4673;53.458;9.940;2022-09-21T15:00:21;16.30;32.50
9271;DHT22;4673;53.458;9.940;2022-09-21T15:05:45;16.30;34.00
9271;DHT22;4673;53.458;9.940;2022-09-21T15:11:37;16.10;33.80
9271;DHT22;4673;53.458;9.940;2022-09-21T15:17:34;15.90;40.10
9271;DHT22;4673;53.458;9.940;2022-09-21T15:20:13;15.90;41.70
9271;DHT22;4673;53.458;9.940;2022-09-21T15:22:42;15.90;42.30
9271;DHT22;4673;53.458;9.940;2022-09-21T15:25:11;15.80;43.60
9271;DHT22;4673;53.458;9.940;2022-09-21T15:27:42;15.80;42.20
9271;DHT22;4673;53.458;9.940;2022-09-21T15:30:19;15.80;42.40
9271;DHT22;4673;53.458;9.940;2022-09-21T15:32:47;15.80;44.50
9271;DHT22;4673;53.458;9.940;2022-09-21T15:37:44;15.60;44.10
9271;DHT22;4673;53.458;9.940;2022-09-21T15:40:22;15.50;44.40
9271;DHT22;4673;53.458;9.940;2022-09-21T15:43:05;15.40;45.40
9271;DHT22;4673;53.458;9.940;2022-09-21T15:45:55;15.40;45.70
9271;DHT22;4673;53.458;9.940;2022-09-21T15:48:22;15.50;46.90
9271;DHT22;4673;53.458;9.940;2022-09-21T15:53:40;15.40;48.20
9271;DHT22;4673;53.458;9.940;2022-09-21T15:56:17;15.40;47.10
9271;DHT22;4673;53.458;9.940;2022-09-21T15:58:43;15.30;46.70
9271;DHT22;4673;53.458;9.940;2022-09-21T16:01:19;15.30;47.10
9271;DHT22;4673;53.458;9.940;2022-09-21T16:03:47;15.20;48.60
9271;DHT22;4673;53.458;9.940;2022-09-21T16:06:37;15.10;48.40
9271;DHT22;4673;53.458;9.940;2022-09-21T16:12:00;15.00;50.20
9271;DHT22;4673;53.458;9.940;2022-09-21T16:14:48;15.00;50.80
9271;DHT22;4673;53.458;9.940;2022-09-21T16:17:27;14.90;51.40
9271;DHT22;4673;53.458;9.940;2022-09-21T16:24:52;14.70;53.60
9271;DHT22;4673;53.458;9.940;2022-09-21T16:27:21;14.60;54.80
9271;DHT22;4673;53.458;9.940;2022-09-21T16:29:48;14.50;56.60
9271;DHT22;4673;53.458;9.940;2022-09-21T16:34:47;14.30;59.00
9271;DHT22;4673;53.458;9.940;2022-09-21T16:37:27;14.20;60.40
9271;DHT22;4673;53.458;9.940;2022-09-21T16:39:55;14.00;62.10
9271;DHT22;4673;53.458;9.940;2022-09-21T16:42:22;13.90;62.40
9271;DHT22;4673;53.458;9.940;2022-09-21T16:44:48;13.70;62.60
9271;DHT22;4673;53.458;9.940;2022-09-21T16:47:21;13.60;64.00
9271;DHT22;4673;53.458;9.940;2022-09-21T16:49:53;13.50;65.20
9271;DHT22;4673;53.458;9.940;2022-09-21T16:52:24;13.40;65.80
9271;DHT22;4673;53.458;9.940;2022-09-21T16:54:50;13.30;66.50
9271;DHT22;4673;53.458;9.940;2022-09-21T16:57:16;13.10;67.20
9271;DHT22;4673;53.458;9.940;2022-09-21T16:59:42;13.20;67.90
9271;DHT22;4673;53.458;9.940;2022-09-21T17:02:11;13.00;68.40
9271;DHT22;4673;53.458;9.940;2022-09-21T17:04:39;12.90;69.00
9271;DHT22;4673;53.458;9.940;2022-09-21T17:07:05;12.70;69.30
9271;DHT22;4673;53.458;9.940;2022-09-21T17:09:35;12.60;70.00
9271;DHT22;4673;53.458;9.940;2022-09-21T17:12:07;12.50;70.50
9271;DHT22;4673;53.458;9.940;2022-09-21T17:14:34;12.40;71.00
9271;DHT22;4673;53.458;9.940;2022-09-21T17:17:18;12.30;71.70
9271;DHT22;4673;53.458;9.940;2022-09-21T17:19:45;12.20;72.10
9271;DHT22;4673;53.458;9.940;2022-09-21T17:22:13;12.10;72.80
9271;DHT22;4673;53.458;9.940;2022-09-21T17:24:51;12.00;73.40
9271;DHT22;4673;53.458;9.940;2022-09-21T17:27:22;11.80;73.90
9271;DHT22;4673;53.458;9.940;2022-09-21T17:29:48;11.70;74.70
9271;DHT22;4673;53.458;9.940;2022-09-21T17:32:15;11.60;75.60
9271;DHT22;4673;53.458;9.940;2022-09-21T17:34:42;11.50;76.50
9271;DHT22;4673;53.458;9.940;2022-09-21T17:37:08;11.50;77.00
9271;DHT22;4673;53.458;9.940;2022-09-21T17:39:34;11.30;77.30
9271;DHT22;4673;53.458;9.940;2022-09-21T17:42:02;11.30;78.40
9271;DHT22;4673;53.458;9.940;2022-09-21T17:45:08;11.20;78.90
9271;DHT22;4673;53.458;9.940;2022-09-21T17:47:37;11.10;79.10
9271;DHT22;4673;53.458;9.940;2022-09-21T17:52:39;10.80;79.70
9271;DHT22;4673;53.458;9.940;2022-09-21T17:55:24;10.70;80.00
9271;DHT22;4673;53.458;9.940;2022-09-21T17:58:16;10.60;80.30
9271;DHT22;4673;53.458;9.940;2022-09-21T18:03:31;10.50;81.00
9271;DHT22;4673;53.458;9.940;2022-09-21T18:05:57;10.40;81.20
9271;DHT22;4673;53.458;9.940;2022-09-21T18:08:26;10.30;81.60
9271;DHT22;4673;53.458;9.940;2022-09-21T18:11:13;10.20;81.80
9271;DHT22;4673;53.458;9.940;2022-09-21T18:22:30;10.10;83.30
9271;DHT22;4673;53.458;9.940;2022-09-21T18:25:00;10.00;83.50
9271;DHT22;4673;53.458;9.940;2022-09-21T18:27:30;10.00;83.60
9271;DHT22;4673;53.458;9.940;2022-09-21T18:29:57;9.90;83.90
9271;DHT22;4673;53.458;9.940;2022-09-21T18:43:59;9.70;85.30
9271;DHT22;4673;53.458;9.940;2022-09-21T18:46:58;9.60;85.40
9271;DHT22;4673;53.458;9.940;2022-09-21T18:49:37;9.60;85.70
9271;DHT22;4673;53.458;9.940;2022-09-21T18:52:16;9.50;86.10
9271;DHT22;4673;53.458;9.940;2022-09-21T18:54:44;9.50;86.40
9271;DHT22;4673;53.458;9.940;2022-09-21T18:57:11;9.50;86.60
9271;DHT22;4673;53.458;9.940;2022-09-21T18:59:38;9.40;86.80
9271;DHT22;4673;53.458;9.940;2022-09-21T19:02:13;9.40;87.00
9271;DHT22;4673;53.458;9.940;2022-09-21T19:04:41;9.40;87.20
9271;DHT22;4673;53.458;9.940;2022-09-21T19:07:25;9.30;87.40
9271;DHT22;4673;53.458;9.940;2022-09-21T19:10:35;9.20;87.50
9271;DHT22;4673;53.458;9.940;2022-09-21T19:13:06;9.10;87.70
9271;DHT22;4673;53.458;9.940;2022-09-21T19:18:36;9.10;88.20
9271;DHT22;4673;53.458;9.940;2022-09-21T19:21:44;9.00;88.40
9271;DHT22;4673;53.458;9.940;2022-09-21T19:24:30;9.00;88.70
9271;DHT22;4673;53.458;9.940;2022-09-21T19:29:53;8.90;89.10
9271;DHT22;4673;53.458;9.940;2022-09-21T19:32:34;8.90;89.40
9271;DHT22;4673;53.458;9.940;2022-09-21T19:35:32;8.90;89.50
9271;DHT22;4673;53.458;9.940;2022-09-21T19:38:01;8.80;89.70
9271;DHT22;4673;53.458;9.940;2022-09-21T19:40:36;8.80;89.80
9271;DHT22;4673;53.458;9.940;2022-09-21T19:43:32;8.80;90.00
9271;DHT22;4673;53.458;9.940;2022-09-21T19:48:46;8.70;90.40
9271;DHT22;4673;53.458;9.940;2022-09-21T19:51:37;8.70;90.50
9271;DHT22;4673;53.458;9.940;2022-09-21T19:54:12;8.70;90.70
9271;DHT22;4673;53.458;9.940;2022-09-21T19:56:57;8.60;90.70
9271;DHT22;4673;53.458;9.940;2022-09-21T19:59:41;8.60;90.90
9271;DHT22;4673;53.458;9.940;2022-09-21T20:02:16;8.60;91.10
9271;DHT22;4673;53.458;9.940;2022-09-21T20:10:10;8.60;91.80
9271;DHT22;4673;53.458;9.940;2022-09-21T20:12:56;8.70;92.20
9271;DHT22;4673;53.458;9.940;2022-09-21T20:15:30;9.00;91.80
9271;DHT22;4673;53.458;9.940;2022-09-21T20:18:17;9.40;90.30
9271;DHT22;4673;53.458;9.940;2022-09-21T20:20:44;9.50;89.10
9271;DHT22;4673;53.458;9.940;2022-09-21T20:23:11;9.50;88.40
9271;DHT22;4673;53.458;9.940;2022-09-21T20:25:56;9.40;87.90
9271;DHT22;4673;53.458;9.940;2022-09-21T20:28:24;9.30;87.90
9271;DHT22;4673;53.458;9.940;2022-09-21T20:30:50;9.20;88.00
9271;DHT22;4673;53.458;9.940;2022-09-21T20:33:19;9.10;88.20
9271;DHT22;4673;53.458;9.940;2022-09-21T20:35:49;9.00;88.50
9271;DHT22;4673;53.458;9.940;2022-09-21T20:38:15;8.90;88.70
9271;DHT22;4673;53.458;9.940;2022-09-21T20:40:42;8.90;89.00